sensor_id;sensor_type;location;lat;lon;timestamp;pressure;altitude;pressure_sealevel;temperature;humidity
80837;BME280;70251;60.008;30.404;2023-06-04T00:01:49;100715.75;;;11.91;57.58
80837;BME280;70251;60.008;30.404;2023-06-04T00:04:15;100707.72;;;11.91;57.41
80837;BME280;70251;60.008;30.404;2023-06-04T00:06:40;100708.72;;;11.90;57.66
80837;BME280;70251;60.008;30.404;2023-06-04T00:09:06;100698.16;;;11.89;57.67
80837;BME280;70251;60.008;30.404;2023-06-04T00:11:31;100701.69;;;11.89;57.55
80837;BME280;70251;60.008;30.404;2023-06-04T00:13:59;100693.81;;;11.88;57.70
80837;BME280;70251;60.008;30.404;2023-06-04T00:16:25;100692.81;;;11.89;57.56
80837;BME280;70251;60.008;30.404;2023-06-04T00:18:50;100699.69;;;11.91;57.16
80837;BME280;70251;60.008;30.404;2023-06-04T00:21:16;100697.19;;;11.90;57.06
80837;BME280;70251;60.008;30.404;2023-06-04T00:23:41;100700.00;;;11.88;56.84
80837;BME280;70251;60.008;30.404;2023-06-04T00:26:07;100704.63;;;11.86;57.06
80837;BME280;70251;60.008;30.404;2023-06-04T00:28:35;100695.78;;;11.86;56.90
80837;BME280;70251;60.008;30.404;2023-06-04T00:31:04;100696.06;;;11.83;56.88
80837;BME280;70251;60.008;30.404;2023-06-04T00:33:29;100717.16;;;11.86;56.76
80837;BME280;70251;60.008;30.404;2023-06-04T00:35:55;100708.44;;;11.84;56.83
80837;BME280;70251;60.008;30.404;2023-06-04T00:38:20;100700.72;;;11.81;56.42
80837;BME280;70251;60.008;30.404;2023-06-04T00:40:46;100702.41;;;11.82;56.72
80837;BME280;70251;60.008;30.404;2023-06-04T00:43:11;100695.22;;;11.82;56.39
80837;BME280;70251;60.008;30.404;2023-06-04T00:45:39;100691.03;;;11.80;56.55
80837;BME280;70251;60.008;30.404;2023-06-04T00:48:05;100698.31;;;11.78;56.29
80837;BME280;70251;60.008;30.404;2023-06-04T00:50:31;100687.91;;;11.75;56.45
80837;BME280;70251;60.008;30.404;2023-06-04T00:53:00;100686.53;;;11.71;56.63
80837;BME280;70251;60.008;30.404;2023-06-04T00:55:26;100681.88;;;11.73;56.51
80837;BME280;70251;60.008;30.404;2023-06-04T00:57:51;100680.16;;;11.72;56.26
80837;BME280;70251;60.008;30.404;2023-06-04T01:00:17;100683.84;;;11.71;56.66
80837;BME280;70251;60.008;30.404;2023-06-04T01:02:48;100681.03;;;11.72;56.47
80837;BME280;70251;60.008;30.404;2023-06-04T01:05:26;100676.09;;;11.67;56.31
80837;BME280;70251;60.008;30.404;2023-06-04T01:07:55;100684.81;;;11.69;56.13
80837;BME280;70251;60.008;30.404;2023-06-04T01:10:23;100676.81;;;11.69;56.11
80837;BME280;70251;60.008;30.404;2023-06-04T01:12:49;100687.66;;;11.68;55.92
80837;BME280;70251;60.008;30.404;2023-06-04T01:15:14;100683.38;;;11.65;56.49
80837;BME280;70251;60.008;30.404;2023-06-04T01:17:42;100672.00;;;11.63;56.21
80837;BME280;70251;60.008;30.404;2023-06-04T01:25:15;100673.97;;;11.61;56.45
80837;BME280;70251;60.008;30.404;2023-06-04T01:27:51;100667.94;;;11.59;56.46
80837;BME280;70251;60.008;30.404;2023-06-04T01:30:30;100668.19;;;11.56;56.57
80837;BME280;70251;60.008;30.404;2023-06-04T01:32:56;100666.69;;;11.54;56.40
80837;BME280;70251;60.008;30.404;2023-06-04T01:35:26;100667.66;;;11.53;56.56
80837;BME280;70251;60.008;30.404;2023-06-04T01:37:52;100666.81;;;11.52;56.67
80837;BME280;70251;60.008;30.404;2023-06-04T01:40:17;100664.44;;;11.49;56.73
80837;BME280;70251;60.008;30.404;2023-06-04T01:42:43;100663.44;;;11.50;56.63
80837;BME280;70251;60.008;30.404;2023-06-04T01:45:10;100693.66;;;11.51;57.13
80837;BME280;70251;60.008;30.404;2023-06-04T01:47:36;100664.44;;;11.49;57.08
80837;BME280;70251;60.008;30.404;2023-06-04T01:50:05;100741.06;;;11.49;58.34
80837;BME280;70251;60.008;30.404;2023-06-04T01:52:54;100685.09;;;11.47;59.10
80837;BME280;70251;60.008;30.404;2023-06-04T01:55:20;100664.84;;;11.45;58.78
80837;BME280;70251;60.008;30.404;2023-06-04T01:57:46;100673.84;;;11.44;59.06
80837;BME280;70251;60.008;30.404;2023-06-04T02:00:15;100680.75;;;11.37;59.64
80837;BME280;70251;60.008;30.404;2023-06-04T02:02:43;100674.69;;;11.25;60.65
80837;BME280;70251;60.008;30.404;2023-06-04T02:05:10;100671.16;;;11.15;61.17
80837;BME280;70251;60.008;30.404;2023-06-04T02:07:40;100677.59;;;11.03;61.89
80837;BME280;70251;60.008;30.404;2023-06-04T02:10:14;100680.41;;;11.02;62.46
80837;BME280;70251;60.008;30.404;2023-06-04T02:12:52;100680.13;;;10.95;62.61
80837;BME280;70251;60.008;30.404;2023-06-04T02:15:18;100679.28;;;10.94;62.97
80837;BME280;70251;60.008;30.404;2023-06-04T02:17:43;100678.56;;;10.92;63.46
80837;BME280;70251;60.008;30.404;2023-06-04T02:20:17;100689.13;;;10.94;63.37
80837;BME280;70251;60.008;30.404;2023-06-04T02:22:42;100684.91;;;10.91;63.72
80837;BME280;70251;60.008;30.404;2023-06-04T02:25:08;100682.78;;;10.95;63.75
80837;BME280;70251;60.008;30.404;2023-06-04T02:27:37;100689.84;;;10.96;63.77
80837;BME280;70251;60.008;30.404;2023-06-04T02:30:03;100697.13;;;10.94;63.75
80837;BME280;70251;60.008;30.404;2023-06-04T02:32:29;100690.09;;;10.93;64.11
80837;BME280;70251;60.008;30.404;2023-06-04T02:34:57;100702.47;;;10.94;64.13
80837;BME280;70251;60.008;30.404;2023-06-04T02:37:22;100692.06;;;10.91;64.78
80837;BME280;70251;60.008;30.404;2023-06-04T02:39:48;100685.75;;;10.92;64.13
80837;BME280;70251;60.008;30.404;2023-06-04T02:42:13;100677.88;;;10.90;64.53
80837;BME280;70251;60.008;30.404;2023-06-04T02:44:39;100688.84;;;10.87;64.81
80837;BME280;70251;60.008;30.404;2023-06-04T02:47:05;100685.31;;;10.87;64.86
80837;BME280;70251;60.008;30.404;2023-06-04T02:49:30;100678.00;;;10.89;64.84
80837;BME280;70251;60.008;30.404;2023-06-04T02:51:56;100681.09;;;10.84;65.04
80837;BME280;70251;60.008;30.404;2023-06-04T02:54:21;100679.97;;;10.87;64.93
80837;BME280;70251;60.008;30.404;2023-06-04T02:56:46;100656.38;;;10.82;65.11
80837;BME280;70251;60.008;30.404;2023-06-04T02:59:14;100684.16;;;10.80;65.34
80837;BME280;70251;60.008;30.404;2023-06-04T03:01:40;100683.75;;;10.75;65.38
80837;BME280;70251;60.008;30.404;2023-06-04T03:04:06;100673.34;;;10.72;65.81
80837;BME280;70251;60.008;30.404;2023-06-04T03:06:35;100670.97;;;10.69;66.13
80837;BME280;70251;60.008;30.404;2023-06-04T03:09:03;100669.00;;;10.71;65.67
80837;BME280;70251;60.008;30.404;2023-06-04T03:11:29;100683.03;;;10.73;65.55
80837;BME280;70251;60.008;30.404;2023-06-04T03:13:55;100674.03;;;10.74;65.54
80837;BME280;70251;60.008;30.404;2023-06-04T03:16:20;100664.47;;;10.71;65.85
80837;BME280;70251;60.008;30.404;2023-06-04T03:18:46;100668.16;;;10.70;65.56
80837;BME280;70251;60.008;30.404;2023-06-04T03:21:11;100670.66;;;10.72;65.64
80837;BME280;70251;60.008;30.404;2023-06-04T03:23:37;100673.19;;;10.73;65.73
80837;BME280;70251;60.008;30.404;2023-06-04T03:26:04;100660.84;;;10.72;65.86
80837;BME280;70251;60.008;30.404;2023-06-04T03:28:31;100674.44;;;10.69;65.87
80837;BME280;70251;60.008;30.404;2023-06-04T03:30:57;100664.63;;;10.70;65.56
80837;BME280;70251;60.008;30.404;2023-06-04T03:33:23;100657.72;;;10.67;65.13
80837;BME280;70251;60.008;30.404;2023-06-04T03:35:52;100663.06;;;10.67;65.43
80837;BME280;70251;60.008;30.404;2023-06-04T03:38:18;100662.09;;;10.68;65.06
80837;BME280;70251;60.008;30.404;2023-06-04T03:40:45;100677.13;;;10.69;65.12
80837;BME280;70251;60.008;30.404;2023-06-04T03:43:10;100673.63;;;10.69;64.99
80837;BME280;70251;60.008;30.404;2023-06-04T03:45:38;100680.78;;;10.68;64.86
80837;BME280;70251;60.008;30.404;2023-06-04T03:48:04;100647.06;;;10.67;64.56
80837;BME280;70251;60.008;30.404;2023-06-04T03:50:32;100682.59;;;10.68;64.39
80837;BME280;70251;60.008;30.404;2023-06-04T03:52:58;100658.84;;;10.65;64.36
80837;BME280;70251;60.008;30.404;2023-06-04T03:55:23;100670.97;;;10.69;64.46
80837;BME280;70251;60.008;30.404;2023-06-04T03:57:49;100666.44;;;10.69;64.18
80837;BME280;70251;60.008;30.404;2023-06-04T04:00:15;100662.38;;;10.65;64.33
80837;BME280;70251;60.008;30.404;2023-06-04T04:02:42;100645.50;;;10.65;64.44
80837;BME280;70251;60.008;30.404;2023-06-04T04:05:08;100656.06;;;10.66;64.16
80837;BME280;70251;60.008;30.404;2023-06-04T04:07:35;100676.41;;;10.67;64.26
80837;BME280;70251;60.008;30.404;2023-06-04T04:10:00;100669.66;;;10.63;64.23
80837;BME280;70251;60.008;30.404;2023-06-04T04:12:26;100657.03;;;10.65;64.14
80837;BME280;70251;60.008;30.404;2023-06-04T04:14:51;100646.22;;;10.67;64.28
80837;BME280;70251;60.008;30.404;2023-06-04T04:17:17;100669.50;;;10.65;64.42
80837;BME280;70251;60.008;30.404;2023-06-04T04:19:42;100649.16;;;10.64;64.27
80837;BME280;70251;60.008;30.404;2023-06-04T04:22:10;100652.28;;;10.69;64.23
80837;BME280;70251;60.008;30.404;2023-06-04T04:24:35;100651.28;;;10.70;64.03
80837;BME280;70251;60.008;30.404;2023-06-04T04:27:04;100688.38;;;10.73;63.96
80837;BME280;70251;60.008;30.404;2023-06-04T04:29:30;100649.31;;;10.72;63.94
80837;BME280;70251;60.008;30.404;2023-06-04T04:32:01;100648.22;;;10.74;64.01
80837;BME280;70251;60.008;30.404;2023-06-04T04:34:26;100667.03;;;10.73;64.05
80837;BME280;70251;60.008;30.404;2023-06-04T04:36:52;100670.97;;;10.69;64.87
80837;BME280;70251;60.008;30.404;2023-06-04T04:39:20;100659.69;;;10.65;65.13
80837;BME280;70251;60.008;30.404;2023-06-04T04:41:45;100650.44;;;10.60;64.91
80837;BME280;70251;60.008;30.404;2023-06-04T04:44:11;100648.72;;;10.59;65.50
80837;BME280;70251;60.008;30.404;2023-06-04T04:46:36;100641.56;;;10.59;65.61
80837;BME280;70251;60.008;30.404;2023-06-04T04:49:02;100644.28;;;10.69;65.27
80837;BME280;70251;60.008;30.404;2023-06-04T04:51:27;100653.53;;;10.74;65.83
80837;BME280;70251;60.008;30.404;2023-06-04T04:53:53;100649.06;;;10.75;65.71
80837;BME280;70251;60.008;30.404;2023-06-04T04:56:20;100643.16;;;10.81;65.66
80837;BME280;70251;60.008;30.404;2023-06-04T04:58:45;100650.34;;;10.90;65.81
80837;BME280;70251;60.008;30.404;2023-06-04T05:01:13;100646.97;;;10.88;65.96
80837;BME280;70251;60.008;30.404;2023-06-04T05:03:39;100644.31;;;10.88;66.03
80837;BME280;70251;60.008;30.404;2023-06-04T05:06:04;100654.28;;;10.86;65.92
80837;BME280;70251;60.008;30.404;2023-06-04T05:08:30;100664.38;;;10.82;66.52
80837;BME280;70251;60.008;30.404;2023-06-04T05:10:56;100652.84;;;10.82;66.79
80837;BME280;70251;60.008;30.404;2023-06-04T05:13:21;100644.28;;;10.78;66.81
80837;BME280;70251;60.008;30.404;2023-06-04T05:15:47;100639.94;;;10.77;66.93
80837;BME280;70251;60.008;30.404;2023-06-04T05:18:13;100642.72;;;10.76;67.04
80837;BME280;70251;60.008;30.404;2023-06-04T05:20:41;100650.88;;;10.74;67.32
80837;BME280;70251;60.008;30.404;2023-06-04T05:23:08;100643.13;;;10.71;67.17
80837;BME280;70251;60.008;30.404;2023-06-04T05:25:33;100637.78;;;10.71;67.57
80837;BME280;70251;60.008;30.404;2023-06-04T05:27:59;100649.88;;;10.75;67.54
80837;BME280;70251;60.008;30.404;2023-06-04T05:30:24;100628.53;;;10.66;67.78
80837;BME280;70251;60.008;30.404;2023-06-04T05:32:50;100634.28;;;10.61;68.19
80837;BME280;70251;60.008;30.404;2023-06-04T05:35:16;100634.13;;;10.63;68.16
80837;BME280;70251;60.008;30.404;2023-06-04T05:37:42;100635.53;;;10.67;67.83
80837;BME280;70251;60.008;30.404;2023-06-04T05:40:08;100622.78;;;10.70;67.90
80837;BME280;70251;60.008;30.404;2023-06-04T05:42:35;100631.91;;;10.68;68.17
80837;BME280;70251;60.008;30.404;2023-06-04T05:45:05;100627.97;;;10.72;68.68
80837;BME280;70251;60.008;30.404;2023-06-04T05:47:30;100622.50;;;10.73;68.77
80837;BME280;70251;60.008;30.404;2023-06-04T05:49:57;100638.25;;;10.76;68.92
80837;BME280;70251;60.008;30.404;2023-06-04T05:52:23;100637.28;;;10.77;69.27
80837;BME280;70251;60.008;30.404;2023-06-04T05:54:48;100640.94;;;10.86;69.23
80837;BME280;70251;60.008;30.404;2023-06-04T05:57:14;100631.81;;;10.98;68.78
80837;BME280;70251;60.008;30.404;2023-06-04T05:59:40;100640.66;;;11.08;68.81
80837;BME280;70251;60.008;30.404;2023-06-04T06:02:05;100628.72;;;11.22;68.63
80837;BME280;70251;60.008;30.404;2023-06-04T06:04:31;100627.31;;;11.37;68.10
80837;BME280;70251;60.008;30.404;2023-06-04T06:06:56;100628.84;;;11.49;68.57
80837;BME280;70251;60.008;30.404;2023-06-04T06:09:22;100624.91;;;11.62;68.08
80837;BME280;70251;60.008;30.404;2023-06-04T06:11:48;100633.47;;;11.76;68.20
80837;BME280;70251;60.008;30.404;2023-06-04T06:14:13;100621.63;;;11.88;68.24
80837;BME280;70251;60.008;30.404;2023-06-04T06:16:39;100622.03;;;11.93;68.32
80837;BME280;70251;60.008;30.404;2023-06-04T06:19:04;100629.19;;;12.02;68.33
80837;BME280;70251;60.008;30.404;2023-06-04T06:21:32;100613.25;;;12.10;68.35
80837;BME280;70251;60.008;30.404;2023-06-04T06:23:58;100624.06;;;12.18;68.30
80837;BME280;70251;60.008;30.404;2023-06-04T06:26:24;100612.03;;;12.31;68.35
80837;BME280;70251;60.008;30.404;2023-06-04T06:28:50;100622.09;;;12.47;67.97
80837;BME280;70251;60.008;30.404;2023-06-04T06:31:16;100624.56;;;12.58;67.66
80837;BME280;70251;60.008;30.404;2023-06-04T06:33:47;100621.66;;;12.69;67.61
80837;BME280;70251;60.008;30.404;2023-06-04T06:36:12;100626.72;;;12.72;67.35
80837;BME280;70251;60.008;30.404;2023-06-04T06:38:38;100632.97;;;12.63;66.92
80837;BME280;70251;60.008;30.404;2023-06-04T06:41:05;100627.97;;;12.51;67.42
80837;BME280;70251;60.008;30.404;2023-06-04T06:43:31;100619.31;;;12.39;67.52
80837;BME280;70251;60.008;30.404;2023-06-04T06:45:59;100630.91;;;12.30;68.12
80837;BME280;70251;60.008;30.404;2023-06-04T06:48:25;100632.63;;;12.21;68.14
80837;BME280;70251;60.008;30.404;2023-06-04T06:50:50;100624.75;;;12.20;68.44
80837;BME280;70251;60.008;30.404;2023-06-04T06:53:19;100623.38;;;12.16;68.26
80837;BME280;70251;60.008;30.404;2023-06-04T06:55:45;100629.78;;;12.23;68.10
80837;BME280;70251;60.008;30.404;2023-06-04T06:58:11;100631.19;;;12.27;68.22
80837;BME280;70251;60.008;30.404;2023-06-04T07:00:36;100634.72;;;12.27;68.61
80837;BME280;70251;60.008;30.404;2023-06-04T07:03:02;100641.59;;;12.30;68.41
80837;BME280;70251;60.008;30.404;2023-06-04T07:05:27;100650.16;;;12.33;68.02
80837;BME280;70251;60.008;30.404;2023-06-04T07:07:53;100645.25;;;12.29;68.33
80837;BME280;70251;60.008;30.404;2023-06-04T07:10:22;100646.41;;;12.26;68.28
80837;BME280;70251;60.008;30.404;2023-06-04T07:12:48;100643.59;;;12.28;68.21
80837;BME280;70251;60.008;30.404;2023-06-04T07:15:14;100639.22;;;12.27;67.83
80837;BME280;70251;60.008;30.404;2023-06-04T07:17:40;100657.66;;;12.30;67.96
80837;BME280;70251;60.008;30.404;2023-06-04T07:20:06;100650.59;;;12.29;68.08
80837;BME280;70251;60.008;30.404;2023-06-04T07:22:34;100646.69;;;12.23;68.02
80837;BME280;70251;60.008;30.404;2023-06-04T07:24:59;100653.34;;;12.19;68.30
80837;BME280;70251;60.008;30.404;2023-06-04T07:27:25;100651.94;;;12.15;68.08
80837;BME280;70251;60.008;30.404;2023-06-04T07:29:51;100652.63;;;12.17;68.42
80837;BME280;70251;60.008;30.404;2023-06-04T07:32:17;100653.50;;;12.18;68.50
80837;BME280;70251;60.008;30.404;2023-06-04T07:34:43;100648.53;;;12.23;68.34
80837;BME280;70251;60.008;30.404;2023-06-04T07:37:08;100649.22;;;12.25;68.23
80837;BME280;70251;60.008;30.404;2023-06-04T07:39:34;100657.81;;;12.28;68.35
80837;BME280;70251;60.008;30.404;2023-06-04T07:42:00;100651.59;;;12.28;68.11
80837;BME280;70251;60.008;30.404;2023-06-04T07:44:25;100660.31;;;12.30;67.97
80837;BME280;70251;60.008;30.404;2023-06-04T07:46:51;100658.34;;;12.32;67.78
80837;BME280;70251;60.008;30.404;2023-06-04T07:49:16;100658.75;;;12.37;67.86
80837;BME280;70251;60.008;30.404;2023-06-04T07:51:42;100662.22;;;12.47;68.00
80837;BME280;70251;60.008;30.404;2023-06-04T07:54:07;100660.88;;;12.61;67.53
80837;BME280;70251;60.008;30.404;2023-06-04T07:56:33;100661.94;;;12.77;67.50
80837;BME280;70251;60.008;30.404;2023-06-04T07:58:58;100665.19;;;12.98;67.21
80837;BME280;70251;60.008;30.404;2023-06-04T08:01:24;100657.31;;;13.14;67.01
80837;BME280;70251;60.008;30.404;2023-06-04T08:03:50;100663.31;;;13.26;66.50
80837;BME280;70251;60.008;30.404;2023-06-04T08:06:15;100662.47;;;13.26;66.38
80837;BME280;70251;60.008;30.404;2023-06-04T08:08:45;100685.50;;;13.18;66.11
80837;BME280;70251;60.008;30.404;2023-06-04T08:11:17;100665.06;;;13.17;65.94
80837;BME280;70251;60.008;30.404;2023-06-04T08:13:42;100674.88;;;13.27;65.89
80837;BME280;70251;60.008;30.404;2023-06-04T08:16:08;100663.16;;;13.28;65.83
80837;BME280;70251;60.008;30.404;2023-06-04T08:18:54;100664.47;;;13.23;65.58
80837;BME280;70251;60.008;30.404;2023-06-04T08:21:26;100656.41;;;13.23;65.46
80837;BME280;70251;60.008;30.404;2023-06-04T08:23:58;100688.13;;;13.28;64.89
80837;BME280;70251;60.008;30.404;2023-06-04T08:26:41;100665.22;;;13.16;64.20
80837;BME280;70251;60.008;30.404;2023-06-04T08:29:09;100663.78;;;13.21;63.79
80837;BME280;70251;60.008;30.404;2023-06-04T08:31:55;100643.94;;;13.50;63.51
80837;BME280;70251;60.008;30.404;2023-06-04T08:34:28;100674.56;;;13.65;62.42
80837;BME280;70251;60.008;30.404;2023-06-04T08:36:55;100671.69;;;13.84;62.19
80837;BME280;70251;60.008;30.404;2023-06-04T08:39:21;100669.28;;;13.98;62.03
80837;BME280;70251;60.008;30.404;2023-06-04T08:41:53;100685.25;;;14.08;61.47
80837;BME280;70251;60.008;30.404;2023-06-04T08:44:20;100655.09;;;14.14;61.09
80837;BME280;70251;60.008;30.404;2023-06-04T08:46:52;100652.75;;;14.11;60.53
80837;BME280;70251;60.008;30.404;2023-06-04T08:49:22;100687.63;;;14.11;60.82
80837;BME280;70251;60.008;30.404;2023-06-04T08:51:50;100668.28;;;14.08;61.04
80837;BME280;70251;60.008;30.404;2023-06-04T08:54:16;100672.22;;;14.13;61.24
80837;BME280;70251;60.008;30.404;2023-06-04T08:56:42;100672.38;;;14.12;60.45
80837;BME280;70251;60.008;30.404;2023-06-04T08:59:09;100684.25;;;14.09;60.32
80837;BME280;70251;60.008;30.404;2023-06-04T09:01:36;100670.88;;;14.17;60.35
80837;BME280;70251;60.008;30.404;2023-06-04T09:04:06;100669.63;;;14.29;60.22
80837;BME280;70251;60.008;30.404;2023-06-04T09:06:35;100669.56;;;14.47;60.18
80837;BME280;70251;60.008;30.404;2023-06-04T09:09:03;100666.34;;;14.77;59.72
80837;BME280;70251;60.008;30.404;2023-06-04T09:11:35;100657.47;;;14.85;59.22
80837;BME280;70251;60.008;30.404;2023-06-04T09:14:04;100652.44;;;14.90;58.71
80837;BME280;70251;60.008;30.404;2023-06-04T09:16:32;100664.53;;;14.94;58.11
80837;BME280;70251;60.008;30.404;2023-06-04T09:19:03;100663.41;;;15.12;58.47
80837;BME280;70251;60.008;30.404;2023-06-04T09:21:29;100654.22;;;15.31;57.91
80837;BME280;70251;60.008;30.404;2023-06-04T09:23:55;100661.94;;;15.26;57.66
80837;BME280;70251;60.008;30.404;2023-06-04T09:26:20;100663.28;;;15.22;57.29
80837;BME280;70251;60.008;30.404;2023-06-04T09:28:46;100693.50;;;15.32;57.10
80837;BME280;70251;60.008;30.404;2023-06-04T09:31:16;100650.88;;;15.53;56.11
80837;BME280;70251;60.008;30.404;2023-06-04T09:33:46;100670.72;;;15.68;55.26
80837;BME280;70251;60.008;30.404;2023-06-04T09:36:11;100668.34;;;15.57;55.47
80837;BME280;70251;60.008;30.404;2023-06-04T09:38:38;100671.66;;;15.27;55.54
80837;BME280;70251;60.008;30.404;2023-06-04T09:41:10;100669.31;;;15.16;56.19
80837;BME280;70251;60.008;30.404;2023-06-04T09:43:39;100676.34;;;15.09;56.02
80837;BME280;70251;60.008;30.404;2023-06-04T09:46:16;100657.22;;;15.12;56.20
80837;BME280;70251;60.008;30.404;2023-06-04T09:48:43;100673.16;;;15.05;56.87
80837;BME280;70251;60.008;30.404;2023-06-04T09:51:12;100667.59;;;15.15;57.05
80837;BME280;70251;60.008;30.404;2023-06-04T09:53:39;100657.91;;;15.38;57.19
80837;BME280;70251;60.008;30.404;2023-06-04T09:56:05;100672.56;;;15.60;56.72
80837;BME280;70251;60.008;30.404;2023-06-04T09:58:37;100648.00;;;15.54;56.21
80837;BME280;70251;60.008;30.404;2023-06-04T10:01:05;100674.19;;;15.20;56.25
80837;BME280;70251;60.008;30.404;2023-06-04T10:03:35;100677.50;;;15.06;56.89
80837;BME280;70251;60.008;30.404;2023-06-04T10:06:05;100687.06;;;15.01;56.39
80837;BME280;70251;60.008;30.404;2023-06-04T10:08:32;100676.72;;;15.30;56.61
80837;BME280;70251;60.008;30.404;2023-06-04T10:11:02;100651.72;;;15.37;56.54
80837;BME280;70251;60.008;30.404;2023-06-04T10:13:36;100665.31;;;15.44;56.43
80837;BME280;70251;60.008;30.404;2023-06-04T10:16:05;100656.63;;;15.50;56.47
80837;BME280;70251;60.008;30.404;2023-06-04T10:18:32;100665.00;;;15.71;55.79
80837;BME280;70251;60.008;30.404;2023-06-04T10:20:59;100653.41;;;15.71;55.70
80837;BME280;70251;60.008;30.404;2023-06-04T10:23:24;100675.78;;;15.71;55.62
80837;BME280;70251;60.008;30.404;2023-06-04T10:25:51;100666.84;;;15.87;55.38
80837;BME280;70251;60.008;30.404;2023-06-04T10:28:18;100668.16;;;15.91;55.18
80837;BME280;70251;60.008;30.404;2023-06-04T10:30:45;100674.41;;;15.91;54.66
80837;BME280;70251;60.008;30.404;2023-06-04T10:33:11;100662.41;;;16.10;55.08
80837;BME280;70251;60.008;30.404;2023-06-04T10:35:38;100684.06;;;16.57;54.22
80837;BME280;70251;60.008;30.404;2023-06-04T10:38:05;100661.38;;;16.82;53.20
80837;BME280;70251;60.008;30.404;2023-06-04T10:40:34;100671.38;;;16.65;52.74
80837;BME280;70251;60.008;30.404;2023-06-04T10:43:07;100664.88;;;16.52;53.43
80837;BME280;70251;60.008;30.404;2023-06-04T10:45:33;100671.00;;;16.21;53.68
80837;BME280;70251;60.008;30.404;2023-06-04T10:48:02;100677.84;;;16.32;53.77
80837;BME280;70251;60.008;30.404;2023-06-04T10:50:28;100697.19;;;16.36;53.29
80837;BME280;70251;60.008;30.404;2023-06-04T10:52:55;100679.09;;;16.05;53.42
80837;BME280;70251;60.008;30.404;2023-06-04T10:55:23;100674.91;;;16.03;53.57
80837;BME280;70251;60.008;30.404;2023-06-04T10:57:59;100685.00;;;15.93;52.84
80837;BME280;70251;60.008;30.404;2023-06-04T11:00:48;100683.81;;;16.03;52.88
80837;BME280;70251;60.008;30.404;2023-06-04T11:03:14;100685.91;;;16.48;52.80
80837;BME280;70251;60.008;30.404;2023-06-04T11:08:07;100678.44;;;16.66;51.47
80837;BME280;70251;60.008;30.404;2023-06-04T11:10:38;100677.31;;;16.91;50.90
80837;BME280;70251;60.008;30.404;2023-06-04T11:13:05;100667.72;;;17.20;50.65
80837;BME280;70251;60.008;30.404;2023-06-04T11:15:41;100687.72;;;17.56;49.38
80837;BME280;70251;60.008;30.404;2023-06-04T11:18:07;100685.66;;;17.80;49.38
80837;BME280;70251;60.008;30.404;2023-06-04T11:20:33;100689.84;;;18.06;48.82
80837;BME280;70251;60.008;30.404;2023-06-04T11:22:59;100686.53;;;18.33;48.41
80837;BME280;70251;60.008;30.404;2023-06-04T11:25:30;100681.91;;;18.56;47.58
80837;BME280;70251;60.008;30.404;2023-06-04T11:27:58;100676.78;;;18.61;46.80
80837;BME280;70251;60.008;30.404;2023-06-04T11:30:25;100688.59;;;18.60;46.35
80837;BME280;70251;60.008;30.404;2023-06-04T11:33:02;100687.00;;;18.51;45.70
80837;BME280;70251;60.008;30.404;2023-06-04T11:35:28;100688.19;;;18.34;46.34
80837;BME280;70251;60.008;30.404;2023-06-04T11:37:55;100695.72;;;18.24;46.25
80837;BME280;70251;60.008;30.404;2023-06-04T11:40:21;100691.38;;;18.23;46.61
80837;BME280;70251;60.008;30.404;2023-06-04T11:42:47;100694.34;;;18.28;46.26
80837;BME280;70251;60.008;30.404;2023-06-04T11:45:14;100704.69;;;18.24;46.41
80837;BME280;70251;60.008;30.404;2023-06-04T11:47:44;100725.78;;;18.21;45.63
80837;BME280;70251;60.008;30.404;2023-06-04T11:50:10;100720.78;;;18.32;45.64
80837;BME280;70251;60.008;30.404;2023-06-04T11:52:37;100710.28;;;18.23;45.36
80837;BME280;70251;60.008;30.404;2023-06-04T11:55:07;100716.81;;;18.43;45.29
80837;BME280;70251;60.008;30.404;2023-06-04T11:57:33;100712.88;;;18.31;44.90
80837;BME280;70251;60.008;30.404;2023-06-04T11:59:59;100713.75;;;18.09;45.29
80837;BME280;70251;60.008;30.404;2023-06-04T12:02:24;100714.28;;;17.90;45.53
80837;BME280;70251;60.008;30.404;2023-06-04T12:04:53;100714.31;;;18.04;46.05
80837;BME280;70251;60.008;30.404;2023-06-04T12:07:21;100703.66;;;18.40;45.60
80837;BME280;70251;60.008;30.404;2023-06-04T12:09:50;100702.66;;;18.70;45.41
80837;BME280;70251;60.008;30.404;2023-06-04T12:12:21;100709.44;;;18.95;45.00
80837;BME280;70251;60.008;30.404;2023-06-04T12:15:18;100719.13;;;19.04;43.09
80837;BME280;70251;60.008;30.404;2023-06-04T12:17:52;100725.03;;;19.08;42.95
80837;BME280;70251;60.008;30.404;2023-06-04T12:20:40;100712.63;;;18.99;43.40
80837;BME280;70251;60.008;30.404;2023-06-04T12:23:07;100715.59;;;18.89;43.90
80837;BME280;70251;60.008;30.404;2023-06-04T12:25:34;100722.59;;;18.98;43.61
80837;BME280;70251;60.008;30.404;2023-06-04T12:27:59;100719.31;;;19.03;42.75
80837;BME280;70251;60.008;30.404;2023-06-04T12:30:39;100717.47;;;19.03;41.22
80837;BME280;70251;60.008;30.404;2023-06-04T12:33:05;100710.09;;;19.12;42.59
80837;BME280;70251;60.008;30.404;2023-06-04T12:35:31;100713.59;;;19.27;42.64
80837;BME280;70251;60.008;30.404;2023-06-04T12:37:56;100716.28;;;19.42;42.51
80837;BME280;70251;60.008;30.404;2023-06-04T12:40:22;100729.38;;;19.09;41.93
80837;BME280;70251;60.008;30.404;2023-06-04T12:42:50;100724.94;;;19.01;41.85
80837;BME280;70251;60.008;30.404;2023-06-04T12:45:16;100716.63;;;19.03;42.16
80837;BME280;70251;60.008;30.404;2023-06-04T12:47:42;100720.44;;;19.08;42.15
80837;BME280;70251;60.008;30.404;2023-06-04T12:50:08;100713.69;;;19.19;42.04